Terminal Aerodrome Forecast
Issued by NWS

Home | Current Version | Previous Version | Graphics & Text | Print | Product List | Glossary On
Versions: 1 2 3 4 5 6 7 8 9 10 11 12 13
000
FTUS43 KFGF 180520
TAFBJI
TAF
KBJI 180520Z 1806/1906 20009KT P6SM FEW250 WS020/23040KT
     FM181300 21009KT P6SM FEW250 WS020/27040KT
     FM181400 24011KT P6SM FEW250
     FM181700 27017G26KT P6SM FEW250
     FM190100 27010KT P6SM FEW250
     FM190300 27009KT P6SM SKC WS020/29040KT=

USA.gov is the U.S. government's official web portal to all federal, state and local government web resources and services.